createdAt,value
2022-09-21T00:00:45.345Z,1.37
2022-09-21T00:03:30.780Z,1.83
2022-09-21T00:06:18.958Z,1.40
2022-09-21T00:09:05.437Z,1.50
2022-09-21T00:11:54.129Z,1.50
2022-09-21T00:14:42.957Z,1.50
2022-09-21T00:17:29.013Z,1.17
2022-09-21T00:20:15.976Z,1.30
2022-09-21T00:23:01.697Z,1.40
2022-09-21T00:25:47.322Z,1.47
2022-09-21T00:28:33.064Z,1.40
2022-09-21T00:31:18.835Z,1.17
2022-09-21T00:34:07.657Z,1.20
2022-09-21T00:36:53.170Z,1.30
2022-09-21T00:39:38.737Z,1.47
2022-09-21T00:42:28.782Z,1.20
2022-09-21T00:45:21.180Z,1.40
2022-09-21T00:48:06.549Z,1.23
2022-09-21T00:50:57.022Z,1.23
2022-09-21T00:53:43.139Z,1.30
2022-09-21T00:56:30.373Z,1.00
2022-09-21T00:59:21.562Z,1.03
2022-09-21T01:02:08.316Z,1.00
2022-09-21T01:04:55.045Z,1.17
2022-09-21T01:07:44.077Z,1.33
2022-09-21T01:10:42.157Z,1.23
2022-09-21T01:13:45.289Z,1.23
2022-09-21T01:16:41.966Z,1.20
2022-09-21T01:19:30.180Z,1.10
2022-09-21T01:22:23.503Z,1.33
2022-09-21T01:25:33.100Z,1.00
2022-09-21T01:28:50.448Z,1.20
2022-09-21T01:31:51.048Z,1.10
2022-09-21T01:34:48.549Z,1.07
2022-09-21T01:37:48.043Z,1.10
2022-09-21T01:40:43.882Z,1.10
2022-09-21T01:43:42.624Z,1.20
2022-09-21T01:46:32.377Z,1.17
2022-09-21T01:49:27.280Z,1.10
2022-09-21T01:52:39.076Z,1.30
2022-09-21T01:56:04.631Z,1.40
2022-09-21T01:58:55.055Z,1.03
2022-09-21T02:01:50.307Z,0.90
2022-09-21T02:04:36.076Z,1.30
2022-09-21T02:07:22.220Z,1.17
2022-09-21T02:10:11.101Z,1.20
2022-09-21T02:13:01.340Z,1.10
2022-09-21T02:16:08.999Z,1.10
2022-09-21T02:19:23.957Z,1.00
2022-09-21T02:22:13.385Z,1.27
2022-09-21T02:25:24.713Z,1.20
2022-09-21T02:28:25.579Z,1.10
2022-09-21T02:31:16.266Z,1.27
2022-09-21T02:34:17.921Z,1.10
2022-09-21T02:37:43.077Z,1.30
2022-09-21T02:40:53.983Z,1.30
2022-09-21T02:44:06.744Z,1.30
2022-09-21T02:47:01.180Z,1.47
2022-09-21T02:49:51.878Z,1.53
2022-09-21T02:52:40.926Z,1.27
2022-09-21T02:55:27.316Z,1.10
2022-09-21T02:58:16.497Z,1.30
2022-09-21T03:01:02.997Z,1.40
2022-09-21T03:03:49.109Z,1.30
2022-09-21T03:06:34.816Z,1.33
2022-09-21T03:09:24.202Z,1.50
2022-09-21T03:12:09.802Z,1.20
2022-09-21T03:14:56.048Z,1.20
2022-09-21T03:17:41.850Z,1.33
2022-09-21T03:20:27.306Z,1.20
2022-09-21T03:23:13.821Z,1.10
2022-09-21T03:25:59.235Z,1.27
2022-09-21T03:28:45.176Z,1.60
2022-09-21T03:31:32.173Z,1.60
2022-09-21T03:34:17.749Z,1.30
2022-09-21T03:37:05.322Z,1.20
2022-09-21T03:39:50.896Z,1.37
2022-09-21T03:42:36.427Z,1.40
2022-09-21T03:45:22.236Z,1.27
2022-09-21T03:48:09.018Z,1.50
2022-09-21T03:50:54.657Z,1.30
2022-09-21T03:53:40.163Z,1.30
2022-09-21T03:56:25.704Z,1.70
2022-09-21T03:59:14.105Z,1.33
2022-09-21T04:02:00.145Z,1.20
2022-09-21T04:04:45.540Z,1.10
2022-09-21T04:07:34.729Z,1.10
2022-09-21T04:10:24.231Z,1.37
2022-09-21T04:13:10.038Z,1.43
2022-09-21T04:15:55.533Z,1.10
2022-09-21T04:18:41.039Z,1.10
2022-09-21T04:21:26.865Z,1.17
2022-09-21T04:24:12.280Z,1.10
2022-09-21T04:26:57.765Z,1.00
2022-09-21T04:29:43.057Z,1.10
2022-09-21T04:32:28.452Z,1.23
2022-09-21T04:35:14.047Z,1.03
2022-09-21T04:37:59.716Z,1.30
2022-09-21T04:40:46.183Z,1.37
2022-09-21T04:43:32.000Z,1.20
2022-09-21T04:46:20.061Z,1.37
2022-09-21T04:49:06.012Z,1.60
2022-09-21T04:52:00.160Z,1.20
2022-09-21T04:54:58.781Z,1.33
2022-09-21T04:57:54.931Z,1.27
2022-09-21T05:00:55.550Z,1.40
2022-09-21T05:03:52.957Z,1.23
2022-09-21T05:06:50.996Z,1.23
2022-09-21T05:10:06.844Z,1.90
2022-09-21T05:13:03.399Z,1.40
2022-09-21T05:16:01.658Z,1.40
2022-09-21T05:19:00.954Z,1.33
2022-09-21T05:21:58.692Z,1.77
2022-09-21T05:24:56.191Z,1.43
2022-09-21T05:27:51.303Z,1.47
2022-09-21T05:31:07.250Z,1.70
2022-09-21T05:34:24.139Z,1.40
2022-09-21T05:37:38.976Z,1.50
2022-09-21T05:40:36.427Z,1.63
2022-09-21T05:43:34.188Z,1.53
2022-09-21T05:46:51.614Z,1.50
2022-09-21T05:50:22.226Z,1.17
2022-09-21T05:53:39.272Z,1.43
2022-09-21T05:57:08.364Z,1.90
2022-09-21T06:00:19.123Z,1.60
2022-09-21T06:03:13.297Z,1.47
2022-09-21T06:06:02.761Z,1.43
2022-09-21T06:08:48.411Z,1.50
2022-09-21T06:11:33.873Z,1.70
2022-09-21T06:14:24.664Z,1.83
2022-09-21T06:17:10.705Z,2.10
2022-09-21T06:19:56.492Z,1.80
2022-09-21T06:22:41.952Z,1.67
2022-09-21T06:25:27.464Z,1.73
2022-09-21T06:28:13.431Z,1.87
2022-09-21T06:30:59.428Z,2.10
2022-09-21T06:33:48.086Z,2.00
2022-09-21T06:36:34.072Z,2.30
2022-09-21T06:39:23.689Z,2.17
2022-09-21T06:42:09.519Z,2.10
2022-09-21T06:44:55.763Z,2.10
2022-09-21T06:47:48.398Z,2.33
2022-09-21T06:50:34.059Z,2.03
2022-09-21T06:53:19.963Z,2.67
2022-09-21T06:56:08.042Z,2.37
2022-09-21T06:58:54.865Z,2.90
2022-09-21T07:01:40.568Z,2.27
2022-09-21T07:04:26.911Z,2.50
2022-09-21T07:07:12.427Z,2.40
2022-09-21T07:10:13.192Z,3.20
2022-09-21T07:13:06.154Z,3.10
2022-09-21T07:15:53.341Z,3.50
2022-09-21T07:18:44.403Z,2.67
2022-09-21T07:21:30.104Z,3.13
2022-09-21T07:24:15.913Z,2.80
2022-09-21T07:27:01.668Z,2.73
2022-09-21T07:29:47.280Z,3.23
2022-09-21T07:32:33.046Z,3.10
2022-09-21T07:35:20.285Z,2.53
2022-09-21T07:38:08.545Z,3.53
2022-09-21T07:40:54.160Z,3.20
2022-09-21T07:43:40.430Z,3.40
2022-09-21T07:46:26.346Z,3.13
2022-09-21T07:49:13.479Z,3.53
2022-09-21T07:52:03.504Z,3.00
2022-09-21T07:54:50.518Z,3.47
2022-09-21T07:57:54.480Z,3.50
2022-09-21T08:00:40.135Z,4.00
2022-09-21T08:03:25.712Z,3.57
2022-09-21T08:06:11.627Z,3.20
2022-09-21T08:08:58.141Z,3.20
2022-09-21T08:11:45.025Z,3.17
2022-09-21T08:14:30.972Z,2.83
2022-09-21T08:17:16.359Z,2.53
2022-09-21T08:20:02.787Z,2.80
2022-09-21T08:22:48.726Z,2.37
2022-09-21T08:25:34.420Z,2.43
2022-09-21T08:28:19.984Z,2.50
2022-09-21T08:31:10.235Z,2.80
2022-09-21T08:33:57.666Z,2.27
2022-09-21T08:36:44.378Z,2.50
2022-09-21T08:39:30.053Z,2.40
2022-09-21T08:42:18.716Z,2.73
2022-09-21T08:45:17.624Z,2.40
2022-09-21T08:48:11.078Z,2.60
2022-09-21T08:51:00.765Z,2.65
2022-09-21T08:53:48.933Z,2.17
2022-09-21T08:56:53.661Z,2.65
2022-09-21T08:59:46.286Z,2.25
2022-09-21T09:02:37.785Z,2.10
2022-09-21T09:05:48.617Z,1.80
2022-09-21T09:08:37.085Z,2.40
2022-09-21T09:11:52.690Z,2.40
2022-09-21T09:15:21.880Z,2.40
2022-09-21T09:18:19.869Z,2.15
2022-09-21T09:21:28.011Z,2.10
2022-09-21T09:24:38.097Z,1.95
2022-09-21T09:27:43.208Z,2.17
2022-09-21T09:30:33.819Z,2.10
2022-09-21T09:56:28.048Z,1.83
2022-09-21T09:59:53.395Z,2.03
2022-09-21T10:03:16.011Z,1.70
2022-09-21T10:06:01.569Z,2.00
2022-09-21T10:08:47.349Z,1.85
2022-09-21T10:11:36.908Z,1.35
2022-09-21T10:14:25.300Z,1.40
2022-09-21T10:17:17.671Z,1.55
2022-09-21T10:20:07.000Z,1.42
2022-09-21T10:22:55.440Z,1.50
2022-09-21T10:25:42.425Z,1.55
2022-09-21T10:28:29.542Z,1.42
2022-09-21T10:31:33.586Z,1.60
2022-09-21T10:34:19.011Z,1.25
2022-09-21T10:37:34.790Z,1.67
2022-09-21T10:40:20.415Z,2.05
2022-09-21T10:43:06.420Z,1.40
2022-09-21T10:45:57.534Z,1.55
2022-09-21T10:48:46.454Z,1.40
2022-09-21T10:51:34.816Z,1.10
2022-09-21T10:54:32.904Z,1.20
2022-09-21T10:57:22.037Z,1.45
2022-09-21T11:00:36.424Z,1.45
2022-09-21T11:03:28.549Z,1.27
2022-09-21T11:06:24.085Z,1.30
2022-09-21T11:09:16.548Z,1.40
2022-09-21T11:12:29.696Z,1.40
2022-09-21T11:15:54.845Z,1.38
2022-09-21T11:19:01.693Z,1.20
2022-09-21T11:21:57.799Z,0.90
2022-09-21T11:24:52.411Z,1.20
2022-09-21T11:27:41.801Z,1.60
2022-09-21T11:30:38.511Z,1.50
2022-09-21T11:33:38.916Z,1.58
2022-09-21T11:36:42.788Z,1.20
2022-09-21T11:39:52.100Z,1.58
2022-09-21T11:43:02.440Z,1.15
2022-09-21T11:45:58.894Z,1.25
2022-09-21T11:49:07.960Z,1.83
2022-09-21T11:52:21.269Z,1.30
2022-09-21T11:55:20.173Z,1.23
2022-09-21T11:58:11.687Z,1.33
2022-09-21T12:00:58.215Z,1.25
2022-09-21T12:03:49.088Z,1.00
2022-09-21T12:06:49.940Z,1.23
2022-09-21T12:10:13.413Z,1.20
2022-09-21T12:13:13.859Z,0.93
2022-09-21T12:16:24.255Z,1.65
2022-09-21T12:19:16.371Z,1.17
2022-09-21T12:22:14.497Z,1.70
2022-09-21T12:25:13.372Z,1.58
2022-09-21T12:28:22.534Z,1.58
2022-09-21T12:31:29.755Z,2.08
2022-09-21T12:34:18.836Z,1.48
2022-09-21T12:37:07.248Z,1.58
2022-09-21T12:40:07.054Z,1.27
2022-09-21T12:42:56.617Z,1.55
2022-09-21T12:45:48.397Z,1.65
2022-09-21T12:48:39.699Z,1.58
2022-09-21T12:51:33.149Z,1.30
2022-09-21T12:54:38.050Z,1.60
2022-09-21T12:58:04.405Z,1.52
2022-09-21T13:01:08.814Z,1.38
2022-09-21T13:04:10.356Z,1.13
2022-09-21T13:07:09.293Z,1.77
2022-09-21T13:09:55.109Z,1.30
2022-09-21T13:12:44.239Z,1.48
2022-09-21T13:15:44.811Z,1.23
2022-09-21T13:18:39.878Z,1.27
2022-09-21T13:21:30.015Z,1.45
2022-09-21T13:24:29.615Z,1.20
2022-09-21T13:27:16.009Z,1.08
2022-09-21T13:30:28.144Z,1.10
2022-09-21T13:33:19.807Z,1.05
2022-09-21T13:36:31.175Z,1.27
2022-09-21T13:39:20.396Z,1.17
2022-09-21T13:42:34.359Z,1.05
2022-09-21T13:45:21.310Z,1.30
2022-09-21T13:48:27.522Z,1.30
2022-09-21T13:51:15.635Z,0.90
2022-09-21T13:54:03.737Z,1.00
2022-09-21T13:57:09.007Z,0.98
2022-09-21T14:00:12.827Z,0.90
2022-09-21T14:03:21.898Z,0.77
2022-09-21T14:06:09.321Z,1.00
2022-09-21T14:09:05.026Z,1.40
2022-09-21T14:11:57.909Z,1.58
2022-09-21T14:14:43.986Z,1.10
2022-09-21T14:17:40.405Z,1.27
2022-09-21T14:20:35.841Z,0.70
2022-09-21T14:23:24.440Z,0.90
2022-09-21T14:26:45.892Z,0.93
2022-09-21T14:29:44.705Z,1.02
2022-09-21T14:32:38.747Z,1.00
2022-09-21T14:35:33.443Z,1.10
2022-09-21T14:38:27.267Z,1.50
2022-09-21T14:41:20.188Z,0.82
2022-09-21T14:44:07.488Z,1.38
2022-09-21T14:47:02.174Z,0.98
2022-09-21T14:50:15.528Z,1.05
2022-09-21T14:53:48.420Z,1.00
2022-09-21T14:56:54.129Z,0.90
2022-09-21T14:59:58.916Z,0.80
2022-09-21T15:02:45.084Z,0.93
2022-09-21T15:05:38.062Z,1.02
2022-09-21T15:08:54.648Z,0.90
2022-09-21T15:11:44.900Z,1.15
2022-09-21T15:14:59.811Z,1.10
2022-09-21T15:17:59.322Z,0.77
2022-09-21T15:20:46.245Z,0.73
2022-09-21T15:23:40.326Z,0.77
2022-09-21T15:26:30.915Z,0.85
2022-09-21T15:29:27.593Z,0.85
2022-09-21T15:32:36.107Z,0.90
2022-09-21T15:35:32.904Z,0.98
2022-09-21T15:38:34.405Z,0.93
2022-09-21T15:41:39.578Z,0.95
2022-09-21T15:44:33.172Z,0.80
2022-09-21T15:47:22.111Z,1.08
2022-09-21T15:50:12.755Z,0.82
2022-09-21T15:53:04.672Z,0.70
2022-09-21T15:55:50.617Z,1.10
2022-09-21T15:58:38.363Z,0.88
2022-09-21T16:01:23.731Z,0.90
2022-09-21T16:04:17.229Z,0.90
2022-09-21T16:07:07.076Z,0.90
2022-09-21T16:09:52.658Z,0.80
2022-09-21T16:12:43.609Z,0.70
2022-09-21T16:15:31.980Z,0.80
2022-09-21T16:18:46.384Z,1.13
2022-09-21T16:21:34.755Z,0.75
2022-09-21T16:24:23.057Z,1.00
2022-09-21T16:27:16.828Z,0.80
2022-09-21T16:30:02.486Z,0.93
2022-09-21T16:32:48.550Z,1.00
2022-09-21T16:35:41.550Z,1.13
2022-09-21T16:38:27.783Z,0.93
2022-09-21T16:41:14.472Z,0.80
2022-09-21T16:44:00.686Z,1.10
2022-09-21T16:46:47.755Z,0.93
2022-09-21T16:49:35.654Z,1.00
2022-09-21T16:52:23.118Z,1.00
2022-09-21T16:55:09.052Z,0.70
2022-09-21T16:57:54.575Z,0.90
2022-09-21T17:00:42.089Z,1.10
2022-09-21T17:03:29.186Z,1.10
2022-09-21T17:06:18.342Z,1.08
2022-09-21T17:09:20.898Z,1.27
2022-09-21T17:12:09.340Z,1.10
2022-09-21T17:14:54.897Z,1.15
2022-09-21T17:17:40.672Z,1.50
2022-09-21T17:20:38.286Z,1.00
2022-09-21T17:23:28.425Z,1.30
2022-09-21T17:26:17.722Z,1.40
2022-09-21T17:29:05.496Z,1.27
2022-09-21T17:31:55.050Z,1.70
2022-09-21T17:34:42.171Z,1.13
2022-09-21T17:37:28.039Z,1.30
2022-09-21T17:40:14.357Z,1.52
2022-09-21T17:43:13.777Z,1.45
2022-09-21T17:46:05.439Z,1.60
2022-09-21T17:48:51.765Z,1.50
2022-09-21T17:51:56.027Z,1.42
2022-09-21T17:54:41.840Z,1.70
2022-09-21T17:57:37.123Z,1.63
2022-09-21T18:00:25.148Z,1.33
2022-09-21T18:03:22.507Z,1.70
2022-09-21T18:06:10.160Z,1.73
2022-09-21T18:08:57.363Z,1.73
2022-09-21T18:12:11.378Z,1.55
2022-09-21T18:15:08.975Z,1.77
2022-09-21T18:18:17.447Z,1.52
2022-09-21T18:21:19.298Z,1.85
2022-09-21T18:24:31.177Z,1.73
2022-09-21T18:27:20.035Z,1.85
2022-09-21T18:30:07.931Z,2.40
2022-09-21T18:33:09.870Z,1.88
2022-09-21T18:35:58.973Z,2.00
2022-09-21T18:39:06.604Z,1.60
2022-09-21T18:42:24.541Z,1.73
2022-09-21T18:45:36.232Z,1.25
2022-09-21T18:49:00.518Z,1.50
2022-09-21T18:51:52.864Z,1.80
2022-09-21T18:54:39.356Z,2.10
2022-09-21T18:57:25.468Z,1.73
2022-09-21T19:00:13.348Z,1.88
2022-09-21T19:03:16.565Z,1.83
2022-09-21T19:06:27.418Z,1.80
2022-09-21T19:09:25.043Z,1.70
2022-09-21T19:12:56.936Z,1.70
2022-09-21T19:16:04.390Z,1.83
2022-09-21T19:19:01.757Z,1.70
2022-09-21T19:22:10.675Z,1.92
2022-09-21T19:24:57.163Z,1.98
2022-09-21T19:28:33.185Z,2.03
2022-09-21T19:31:19.338Z,2.08
2022-09-21T19:34:19.420Z,1.83
2022-09-21T19:37:07.883Z,1.90
2022-09-21T19:39:53.616Z,1.65
2022-09-21T19:42:54.699Z,2.90
2022-09-21T19:46:25.210Z,3.40
2022-09-21T19:49:20.195Z,4.78
2022-09-21T19:52:06.242Z,5.75
2022-09-21T19:55:10.235Z,10.90
2022-09-21T19:58:14.677Z,31.63
2022-09-21T20:01:00.416Z,40.05
2022-09-21T20:03:47.503Z,51.95
2022-09-21T20:06:57.145Z,49.20
2022-09-21T20:09:53.454Z,41.28
2022-09-21T20:13:01.409Z,39.72
2022-09-21T20:16:00.736Z,25.23
2022-09-21T20:19:26.070Z,28.42
2022-09-21T20:22:14.892Z,22.73
2022-09-21T20:25:09.856Z,24.17
2022-09-21T20:27:57.220Z,21.33
2022-09-21T20:30:43.630Z,20.95
2022-09-21T20:33:31.444Z,17.33
2022-09-21T20:36:17.396Z,21.05
2022-09-21T20:39:04.115Z,17.40
2022-09-21T20:41:49.791Z,13.68
2022-09-21T20:44:35.314Z,13.88
2022-09-21T20:47:21.067Z,12.38
2022-09-21T20:50:11.613Z,13.48
2022-09-21T20:52:56.995Z,12.65
2022-09-21T20:55:52.416Z,11.32
2022-09-21T20:58:38.683Z,8.40
2022-09-21T21:01:24.905Z,11.20
2022-09-21T21:04:12.462Z,9.82
2022-09-21T21:06:58.232Z,8.27
2022-09-21T21:09:43.611Z,8.00
2022-09-21T21:12:29.364Z,7.28
2022-09-21T21:15:15.820Z,7.93
2022-09-21T21:18:01.546Z,6.05
2022-09-21T21:20:47.021Z,6.40
2022-09-21T21:23:52.516Z,6.55
2022-09-21T21:27:00.897Z,4.88
2022-09-21T21:29:51.362Z,5.22
2022-09-21T21:32:37.637Z,5.40
2022-09-21T21:35:23.600Z,4.67
2022-09-21T21:38:10.305Z,4.90
2022-09-21T21:40:56.226Z,4.43
2022-09-21T21:43:42.130Z,4.40
2022-09-21T21:46:28.682Z,4.77
2022-09-21T21:49:14.400Z,3.73
2022-09-21T21:51:59.906Z,3.60
2022-09-21T21:54:45.442Z,3.90
2022-09-21T21:57:31.068Z,3.93
2022-09-21T22:00:16.408Z,3.50
2022-09-21T22:03:02.535Z,4.00
2022-09-21T22:05:48.624Z,3.93
2022-09-21T22:08:35.571Z,3.40
2022-09-21T22:11:22.351Z,3.37
2022-09-21T22:14:08.525Z,2.60
2022-09-21T22:16:53.964Z,3.47
2022-09-21T22:19:39.419Z,2.80
2022-09-21T22:22:24.931Z,3.10
2022-09-21T22:25:10.955Z,2.63
2022-09-21T22:27:56.776Z,2.77
2022-09-21T22:30:48.519Z,3.13
2022-09-21T22:33:35.296Z,3.33
2022-09-21T22:36:23.966Z,3.20
2022-09-21T22:39:09.840Z,3.07
2022-09-21T22:41:55.470Z,2.80
2022-09-21T22:44:41.188Z,3.07
2022-09-21T22:47:26.753Z,3.00
2022-09-21T22:50:12.384Z,3.00
2022-09-21T22:52:58.091Z,2.80
2022-09-21T22:55:43.590Z,2.77
2022-09-21T22:58:30.252Z,2.57
2022-09-21T23:01:18.247Z,2.73
2022-09-21T23:04:07.067Z,3.17
2022-09-21T23:06:52.448Z,3.20
2022-09-21T23:09:37.790Z,2.40
2022-09-21T23:12:23.172Z,2.40
2022-09-21T23:15:09.073Z,2.80
2022-09-21T23:17:54.753Z,2.70
2022-09-21T23:20:40.186Z,2.90
2022-09-21T23:23:26.419Z,2.80
2022-09-21T23:26:13.245Z,2.97
2022-09-21T23:29:01.119Z,2.63
2022-09-21T23:31:46.778Z,2.90
2022-09-21T23:34:32.129Z,2.97
2022-09-21T23:37:18.165Z,2.67
2022-09-21T23:40:04.566Z,2.77
2022-09-21T23:42:50.093Z,2.90
2022-09-21T23:45:35.812Z,2.80
2022-09-21T23:48:21.180Z,2.60
2022-09-21T23:51:07.513Z,2.60
2022-09-21T23:53:53.739Z,2.90
2022-09-21T23:56:39.171Z,3.00
2022-09-21T23:59:24.876Z,3.10
